METAR Data
IDs: Format: Raw Decoded Include TAF

Data at: 1328 UTC 19 Feb 2020

METAR for:KMOP (Mount Pleasant Muni, MI, US)
Text:KMOP 191316Z AUTO 26003KT 10SM CLR M10/M15 A3046 RMK AO2 T11011150
Temperature:-10.1°C ( 14°F)
Dewpoint:-15.0°C ( 5°F) [RH = 67%]
Pressure (altimeter):30.46 inches Hg (1031.6 mb)
Winds:from the W (260 degrees) at 3 MPH (3 knots; 1.5 m/s)
Visibility:10 or more sm (16+ km)
Ceiling:at least 12,000 feet AGL
Clouds:sky clear below 12,000 feet AGL
QC Flag:automated observation with no human augmentation